Главная страница
METAR-TAF:

METAR-TAF

Аэропорты :

Нджамена, Чад

широта: 12-08N, долгота: 015-02E, высота над уровнем моря: 295 м

Текущие метеонаблюдения

Эта сводка был подготовлена 54 минут назад, в 06:00 UTC
Ветер 6 Узел от юго-западный
Температура 29°C
Влажность 58%
Давление 1011 hPa
Видимость 10 км и более
Нет облачности ниже 1500 м, и нет кучево-дождевой облачности

METAR: FTTJ 170600Z 23006KT CAVOK 29/20 Q1011 NOSIG

Время: 07:54 (06:54 UTC)

Прогноз

Эта сводка был подготовлена 1 час и 54 минут назад, в 05:00 UTC
Прогноз действительный с 17-го 06 UTC до 18-го 12 UTC
Ветер 7 Узел от юго-западный
Видимость 10 км и более
Нет облачности ниже 1500 м, и нет кучево-дождевой облачности
Вероятность 30% :
временами
С 17-го 15 UTC до 17-го 20 UTC
гроза

TAF: FTTJ 170500Z 1706/1812 22007KT CAVOK PROB30 TEMPO 1715/1720 TS

Метеонаблюдения и прогнозы для более 4000 аэропортов (сводки METAR и TAF).

Имеющиеся станции представлены на карте желтыми и красными точками.

Чтобы увидеть название станции, наведите на нее мышь.

Затем щелкните, чтобы увидеть метеонаблюдения и метеопрогнозы.

Управление картой: чтобы увеличить масштаб, щелкните зеленые кнопки с черным крестиком; чтобы уменьшить масштаб, щелкните зеленую кнопку с тире; для просмотра соседних карт щелкайте зеленые стрелки.


METAR-TAF: